Time;durP1;ratioP1;P1;durP2;ratioP2;P2;SDS_P1;SDS_P2;PMS_P1;PMS_P2;Temp;Humidity;BMP_temperature;BMP_pressure;BME280_temperature;BME280_humidity;BME280_pressure;Samples;Min_cycle;Max_cycle;Signal;HPM_P1;HPM_P2
2022/08/13 00:12:56;;;;;;;21.60;18.20;;;;;;;22.00;67.13;100024.19;115288;1203;548040;-65
2022/08/13 00:14:04;;;;;;;21.70;18.70;;;;;;;23.19;63.62;100019.91;116796;1189;24172;-65
2022/08/13 00:16:32;;;;;;;21.70;18.40;;;;;;;23.20;63.54;100017.89;116779;1187;21933;-65
2022/08/13 00:19:01;;;;;;;26.90;18.80;;;;;;;23.21;63.39;100023.73;116715;1192;22932;-65
2022/08/13 00:21:28;;;;;;;19.50;17.30;;;;;;;23.19;63.54;100020.99;116811;1191;21893;-65
2022/08/13 00:24:15;;;;;;;20.80;18.60;;;;;;;23.18;63.45;100022.65;116643;1188;22304;-65
2022/08/13 00:26:59;;;;;;;21.10;17.60;;;;;;;23.18;63.35;100020.16;116630;1188;22944;-64
2022/08/13 00:29:27;;;;;;;20.50;18.30;;;;;;;23.18;63.47;100021.96;116871;1191;21868;-64
2022/08/13 00:31:56;;;;;;;20.30;17.70;;;;;;;23.16;63.60;100024.61;116750;1191;21865;-65
2022/08/13 00:34:26;;;;;;;28.90;18.60;;;;;;;23.13;63.62;100024.83;116719;1191;21904;-65
2022/08/13 00:36:53;;;;;;;20.40;17.10;;;;;;;23.13;63.68;100021.61;116734;1188;23589;-64
2022/08/13 00:39:32;;;;;;;20.70;18.00;;;;;;;23.13;63.80;100018.41;116732;1191;21984;-65
2022/08/13 00:42:20;;;;;;;19.70;16.70;;;;;;;23.12;63.82;100017.36;116798;1191;22330;-65
2022/08/13 00:44:48;;;;;;;18.40;16.50;;;;;;;23.13;63.87;100020.02;116706;1192;22628;-65
2022/08/13 00:50:01;;;;;;;21.10;17.10;;;;;;;23.13;63.87;100019.66;116580;1192;21873;-65
2022/08/13 00:52:33;;;;;;;19.20;16.80;;;;;;;23.14;63.93;100016.17;116684;1189;23506;-66
2022/08/13 00:55:02;;;;;;;23.70;17.40;;;;;;;23.14;63.72;100016.18;116713;1192;21902;-64
2022/08/13 00:57:29;;;;;;;23.00;17.30;;;;;;;23.13;63.85;100011.58;116766;1187;22925;-65
2022/08/13 00:59:59;;;;;;;22.70;17.00;;;;;;;23.13;63.99;100003.55;116750;1191;22931;-65
2022/08/13 01:02:27;;;;;;;22.80;17.20;;;;;;;23.13;64.00;100002.81;116752;1190;21902;-65
2022/08/13 01:05:00;;;;;;;22.60;18.30;;;;;;;23.13;64.03;100002.61;116503;1194;21863;-65
2022/08/13 01:07:30;;;;;;;21.60;17.00;;;;;;;23.14;63.96;100006.54;116724;1188;21876;-66
2022/08/13 01:10:19;;;;;;;18.10;16.00;;;;;;;23.14;63.98;100010.08;116634;1192;22957;-65
2022/08/13 01:12:50;;;;;;;18.30;16.40;;;;;;;23.15;64.03;100004.15;116797;1192;21878;-65
2022/08/13 01:15:18;;;;;;;20.80;17.10;;;;;;;23.15;64.04;99993.56;116707;1191;21891;-64
2022/08/13 01:17:46;;;;;;;20.40;16.80;;;;;;;23.16;64.06;99995.11;116711;1191;21891;-64
2022/08/13 01:20:20;;;;;;;21.50;17.00;;;;;;;23.18;63.97;99998.20;116681;1188;22190;-64
2022/08/13 01:23:01;;;;;;;19.50;16.20;;;;;;;23.21;63.95;99994.05;116558;1192;22766;-64
2022/08/13 01:25:30;;;;;;;20.80;17.30;;;;;;;23.22;63.98;99986.80;116683;1192;23006;-65
2022/08/13 01:28:18;;;;;;;22.60;16.60;;;;;;;23.22;63.97;99983.95;116727;1191;21863;-64
2022/08/13 01:30:47;;;;;;;20.60;16.60;;;;;;;23.22;63.93;99986.27;116687;1192;21964;-65
2022/08/13 01:33:17;;;;;;;20.20;16.20;;;;;;;23.23;63.79;99988.22;116719;1192;22901;-65
2022/08/13 01:35:45;;;;;;;18.30;16.30;;;;;;;23.22;63.92;99989.12;116491;1192;22638;-64
2022/08/13 01:38:15;;;;;;;20.90;16.80;;;;;;;23.22;63.86;99983.08;116700;1189;22061;-66
2022/08/13 01:40:48;;;;;;;17.30;14.80;;;;;;;23.20;64.01;99981.94;116674;1191;21866;-65
2022/08/13 01:43:18;;;;;;;21.00;16.40;;;;;;;23.18;63.96;99981.34;116660;1191;21909;-64
2022/08/13 01:45:50;;;;;;;19.30;16.80;;;;;;;23.15;63.95;99981.71;116474;1189;21882;-64
2022/08/13 01:51:35;;;;;;;20.20;16.80;;;;;;;23.11;63.78;99980.09;116639;1188;21865;-65
2022/08/13 01:54:11;;;;;;;22.50;16.40;;;;;;;23.07;63.73;99977.83;116647;1192;22090;-64
2022/08/13 01:57:00;;;;;;;18.10;16.20;;;;;;;23.04;63.74;99978.24;116661;1189;23679;-66
2022/08/13 01:59:29;;;;;;;18.20;15.80;;;;;;;23.01;63.85;99977.20;116656;1189;21866;-65
2022/08/13 02:02:16;;;;;;;19.50;15.80;;;;;;;22.98;63.84;99981.14;116674;1191;22526;-65
2022/08/13 02:05:04;;;;;;;21.70;17.40;;;;;;;22.96;63.88;99978.78;116951;1184;22822;-64
2022/08/13 02:07:38;;;;;;;20.20;16.80;;;;;;;22.95;63.92;99979.08;116960;1188;21859;-65
2022/08/13 02:10:25;;;;;;;19.90;16.70;;;;;;;22.93;63.88;99977.96;116979;1186;22660;-64
2022/08/13 02:12:52;;;;;;;20.10;17.50;;;;;;;22.91;63.83;99976.63;116947;1189;22628;-65
2022/08/13 02:15:20;;;;;;;19.50;17.40;;;;;;;22.89;63.83;99980.92;117055;1189;23007;-65
2022/08/13 02:18:17;;;;;;;19.60;17.40;;;;;;;22.86;63.72;99979.64;116981;1188;23521;-64
2022/08/13 02:21:04;;;;;;;18.00;16.10;;;;;;;22.84;63.76;99979.75;117016;1188;22932;-65
2022/08/13 02:23:51;;;;;;;20.00;17.90;;;;;;;22.82;63.78;99982.79;116965;1188;21901;-64
2022/08/13 02:26:28;;;;;;;19.20;17.30;;;;;;;22.80;63.76;99982.96;116885;1189;21888;-65
2022/08/13 02:28:59;;;;;;;21.40;16.80;;;;;;;22.78;63.78;99983.47;117078;1185;21865;-65
2022/08/13 02:31:27;;;;;;;21.00;17.10;;;;;;;22.76;63.76;99985.17;117013;1188;21861;-64
2022/08/13 02:34:14;;;;;;;20.00;17.80;;;;;;;22.76;63.85;99985.70;116971;1188;21859;-65
2022/08/13 02:36:43;;;;;;;18.90;16.90;;;;;;;22.75;63.94;99982.59;116997;1188;22922;-65
2022/08/13 02:39:13;;;;;;;20.40;17.00;;;;;;;22.72;63.98;99981.20;116996;1189;22654;-64
2022/08/13 02:41:43;;;;;;;20.30;17.40;;;;;;;22.70;63.95;99975.08;116920;1185;23057;-65
2022/08/13 02:44:20;;;;;;;22.10;16.40;;;;;;;22.69;63.88;99972.63;116952;1189;22242;-64
2022/08/13 02:47:01;;;;;;;20.00;16.80;;;;;;;22.68;64.00;99974.84;116996;1188;21858;-65
2022/08/13 02:49:28;;;;;;;19.40;17.40;;;;;;;22.69;63.98;99971.39;116979;1190;21883;-65
2022/08/13 02:52:12;;;;;;;19.20;17.20;;;;;;;22.69;63.98;99974.03;116898;1189;23478;-64
2022/08/13 02:54:42;;;;;;;18.90;16.60;;;;;;;22.69;63.91;99973.34;116910;1186;24176;-64
2022/08/13 02:57:22;;;;;;;22.20;18.90;;;;;;;22.69;63.95;99971.55;116983;1186;21862;-65
2022/08/13 02:59:49;;;;;;;19.90;17.00;;;;;;;22.70;64.02;99971.34;117003;1188;22928;-64
2022/08/13 03:02:44;;;;;;;20.30;18.30;;;;;;;22.70;64.02;99968.95;116970;1188;23474;-65
2022/08/13 03:05:18;;;;;;;21.30;17.50;;;;;;;22.69;63.98;99968.64;117055;1185;21920;-65
2022/08/13 03:07:47;;;;;;;22.40;18.40;;;;;;;22.69;63.95;99970.11;116934;1189;21859;-64
2022/08/13 03:10:21;;;;;;;28.00;17.00;;;;;;;22.69;63.92;99969.56;117122;1188;21910;-66
2022/08/13 03:13:36;;;;;;;25.20;17.70;;;;;;;22.70;63.85;99966.12;117098;1188;21853;-67
2022/08/13 03:16:15;;;;;;;19.40;17.30;;;;;;;22.71;63.86;99967.50;117034;1187;22932;-65
2022/08/13 03:18:46;;;;;;;19.90;17.40;;;;;;;22.71;64.02;99964.81;117074;1186;23475;-64
2022/08/13 03:21:33;;;;;;;20.90;17.30;;;;;;;22.69;63.96;99964.35;117165;1186;22041;-67
2022/08/13 03:24:12;;;;;;;19.40;17.20;;;;;;;22.69;63.89;99971.18;117070;1185;21852;-67
2022/08/13 03:26:49;;;;;;;18.50;16.30;;;;;;;22.70;63.85;99975.59;117096;1188;22229;-66
2022/08/13 03:29:21;;;;;;;19.10;17.00;;;;;;;22.72;63.85;99975.28;117106;1183;22928;-67
2022/08/13 03:32:08;;;;;;;18.70;16.70;;;;;;;22.72;63.98;99975.95;117110;1186;21907;-65
2022/08/13 03:34:39;;;;;;;19.30;17.10;;;;;;;22.74;63.66;99977.77;117019;1187;21848;-65
2022/08/13 03:37:10;;;;;;;21.00;17.10;;;;;;;22.77;63.75;99976.53;118608;1186;22106;-65
2022/08/13 03:39:38;;;;;;;19.50;17.50;;;;;;;22.79;63.86;99973.21;118567;1186;21963;-65
2022/08/13 03:42:09;;;;;;;23.50;17.20;;;;;;;22.80;63.85;99974.56;117183;1186;21865;-64
2022/08/13 03:44:38;;;;;;;;;;;;;;;22.81;63.92;99976.05;117158;1185;21842;-65
2022/08/13 03:47:05;;;;;;;18.20;15.60;;;;;;;22.82;63.80;99979.20;117113;1188;22433;-64
2022/08/13 03:49:52;;;;;;;21.80;17.30;;;;;;;22.83;64.04;99980.40;117308;1187;21875;-65
2022/08/13 03:52:20;;;;;;;20.50;17.70;;;;;;;22.84;63.83;99980.35;117340;1187;22973;-65
2022/08/13 03:55:10;;;;;;;20.80;17.40;;;;;;;22.87;63.81;99980.33;117091;1183;22976;-67
2022/08/13 03:57:42;;;;;;;19.20;17.20;;;;;;;22.90;63.93;99977.25;117151;1186;21869;-64
2022/08/13 04:00:29;;;;;;;20.20;17.80;;;;;;;22.94;63.99;99975.74;117033;1186;22021;-65
2022/08/13 04:02:57;;;;;;;20.30;17.20;;;;;;;22.98;63.99;99976.86;116939;1183;21859;-67
2022/08/13 04:05:25;;;;;;;20.60;17.70;;;;;;;23.00;64.25;99983.36;119140;1187;21842;-66
2022/08/13 04:08:12;;;;;;;27.20;18.50;;;;;;;23.05;64.20;99980.65;119159;1183;21768;-64
2022/08/13 04:10:43;;;;;;;20.90;17.80;;;;;;;23.12;64.10;99978.23;119199;1183;21792;-64
2022/08/13 04:13:20;;;;;;;24.80;18.00;;;;;;;23.17;64.35;99982.70;119418;1186;21851;-68
2022/08/13 04:16:08;;;;;;;22.40;17.40;;;;;;;23.22;63.99;99986.80;119139;1185;22232;-67
2022/08/13 04:18:36;;;;;;;19.90;17.80;;;;;;;23.31;64.08;99988.37;118099;1187;21848;-64
2022/08/13 04:21:09;;;;;;;19.40;17.00;;;;;;;23.42;64.30;99990.27;117099;1187;21892;-63
2022/08/13 04:23:41;;;;;;;21.60;18.50;;;;;;;23.46;64.21;99992.80;117129;1187;22996;-67
2022/08/13 04:26:11;;;;;;;21.80;17.90;;;;;;;23.48;64.21;99988.54;117187;1185;21860;-62
2022/08/13 04:28:53;;;;;;;20.90;17.70;;;;;;;23.50;64.13;99987.16;117286;1185;23535;-63
2022/08/13 04:31:20;;;;;;;19.90;17.90;;;;;;;23.52;64.21;99986.35;117144;1187;21870;-63
2022/08/13 04:33:49;;;;;;;22.30;18.40;;;;;;;23.54;64.21;99985.24;117204;1186;22593;-62
2022/08/13 04:36:36;;;;;;;20.50;18.30;;;;;;;23.57;64.18;99983.77;117069;1183;21892;-62
2022/08/13 04:39:03;;;;;;;22.10;19.30;;;;;;;23.60;64.21;99979.27;117136;1186;23047;-62
2022/08/13 04:41:31;;;;;;;23.20;19.40;;;;;;;23.61;64.28;99981.02;117085;1186;21895;-66
2022/08/13 04:44:05;;;;;;;22.10;19.70;;;;;;;23.67;64.34;99982.87;117112;1188;21945;-65
2022/08/13 04:46:31;;;;;;;21.70;18.90;;;;;;;23.73;64.41;99980.46;117053;1183;23558;-66
2022/08/13 04:48:59;;;;;;;22.70;20.30;;;;;;;23.79;64.25;99981.65;117057;1187;22039;-65
2022/08/13 04:51:32;;;;;;;23.00;20.40;;;;;;;23.85;64.35;99987.09;117132;1186;23478;-62
2022/08/13 04:54:04;;;;;;;26.00;21.60;;;;;;;23.90;64.32;99986.33;117096;1186;21856;-66
2022/08/13 04:56:33;;;;;;;24.90;22.20;;;;;;;23.98;64.43;99993.55;117071;1183;21866;-66
2022/08/13 04:59:02;;;;;;;26.20;21.70;;;;;;;24.03;64.40;99992.79;117100;1185;21882;-62
2022/08/13 05:01:29;;;;;;;29.00;23.10;;;;;;;24.08;64.34;99991.53;117126;1186;21853;-65
2022/08/13 05:04:17;;;;;;;27.40;22.00;;;;;;;24.10;64.38;99995.17;117042;1186;21857;-66
2022/08/13 05:06:51;;;;;;;25.80;23.10;;;;;;;24.12;64.36;99993.77;117056;1187;22325;-67
2022/08/13 05:09:19;;;;;;;28.80;24.30;;;;;;;24.15;64.72;99992.45;117297;1186;23503;-61
2022/08/13 05:11:55;;;;;;;28.30;25.10;;;;;;;24.16;64.73;99989.31;117036;1187;21892;-65
2022/08/13 05:14:32;;;;;;;34.10;25.50;;;;;;;24.21;64.77;99990.57;117132;1186;21858;-66
2022/08/13 05:17:07;;;;;;;28.90;24.60;;;;;;;24.24;64.80;99993.55;117165;1187;22928;-61
2022/08/13 05:19:39;;;;;;;;;;;;;;;24.29;64.96;99994.45;117098;1185;21851;-61
2022/08/13 05:22:08;;;;;;;28.20;23.80;;;;;;;24.39;64.99;99991.40;117106;1188;22223;-66
2022/08/13 05:24:52;;;;;;;33.10;27.00;;;;;;;24.51;65.00;99984.30;117055;1186;22323;-65
2022/08/13 05:27:39;;;;;;;32.00;26.70;;;;;;;24.60;64.81;99985.97;117053;1185;21981;-62
2022/08/13 05:30:08;;;;;;;35.70;26.70;;;;;;;24.65;64.80;99987.55;117118;1185;23457;-65
2022/08/13 05:32:57;;;;;;;32.50;26.70;;;;;;;24.70;64.80;99986.14;117078;1188;22951;-65
2022/08/13 05:35:28;;;;;;;31.70;26.30;;;;;;;24.75;64.77;99988.25;118025;1182;22928;-64
2022/08/13 05:38:16;;;;;;;36.60;27.70;;;;;;;24.78;64.76;99986.58;117068;1182;21858;-66
2022/08/13 05:41:03;;;;;;;31.80;26.40;;;;;;;24.85;64.54;99988.60;117097;1186;21869;-61
2022/08/13 05:43:38;;;;;;;35.10;27.80;;;;;;;24.89;64.59;99993.64;117023;1182;21866;-60
2022/08/13 05:46:09;;;;;;;34.20;26.90;;;;;;;24.95;64.47;99998.02;117080;1183;21864;-60
2022/08/13 05:48:42;;;;;;;35.60;28.30;;;;;;;25.02;64.53;100000.33;117120;1185;21857;-65
2022/08/13 05:51:11;;;;;;;44.20;27.50;;;;;;;25.09;64.62;100003.38;117259;1182;23705;-61
2022/08/13 05:53:39;;;;;;;40.70;30.10;;;;;;;25.17;64.59;100004.67;117076;1186;22916;-66
2022/08/13 05:56:27;;;;;;;35.40;29.90;;;;;;;25.27;64.48;100000.56;117008;1183;21885;-65
2022/08/13 05:58:54;;;;;;;35.50;29.20;;;;;;;25.35;64.45;100001.91;117042;1182;23650;-67
2022/08/13 06:04:19;;;;;;;33.50;28.60;;;;;;;25.48;64.52;100006.39;116992;1186;24641;-60
2022/08/13 06:07:09;;;;;;;33.80;30.00;;;;;;;25.57;64.62;100007.11;117061;1185;21862;-68
2022/08/13 06:09:36;;;;;;;;;;;;;;;25.58;64.63;100007.09;117124;1185;24089;-67
2022/08/13 06:12:04;;;;;;;33.80;29.10;;;;;;;25.57;64.83;100005.54;117052;1187;22649;-61
2022/08/13 06:14:56;;;;;;;38.20;31.80;;;;;;;25.61;64.90;100005.89;117054;1187;21875;-66
2022/08/13 06:17:24;;;;;;;37.60;33.40;;;;;;;25.68;64.94;100001.78;117055;1187;22313;-66
2022/08/13 06:20:03;;;;;;;36.40;32.50;;;;;;;25.75;64.86;100004.29;117126;1182;21853;-67
2022/08/13 06:22:34;;;;;;;36.20;32.50;;;;;;;25.80;64.87;100006.71;117053;1187;21885;-59
2022/08/13 06:25:05;;;;;;;37.00;33.10;;;;;;;25.88;64.88;100009.11;117076;1186;21847;-67
2022/08/13 06:27:35;;;;;;;41.50;32.40;;;;;;;25.96;64.98;100010.98;117332;1186;21960;-67
2022/08/13 06:30:25;;;;;;;39.10;34.10;;;;;;;26.05;64.77;100011.66;117010;1185;22094;-67
2022/08/13 06:33:02;;;;;;;37.90;34.00;;;;;;;26.13;64.66;100010.85;116937;1185;23019;-60
2022/08/13 06:35:52;;;;;;;35.90;32.20;;;;;;;26.22;64.77;100011.34;117030;1189;21871;-59
2022/08/13 06:38:27;;;;;;;37.70;33.70;;;;;;;26.31;64.72;100013.64;117089;1187;21906;-59
2022/08/13 06:40:55;;;;;;;35.20;31.60;;;;;;;26.39;64.55;100017.31;117159;1182;22945;-68
2022/08/13 06:43:22;;;;;;;37.30;33.40;;;;;;;26.46;64.47;100020.48;117129;1186;23652;-67
2022/08/13 06:45:49;;;;;;;36.90;33.10;;;;;;;26.53;64.47;100019.68;116967;1184;21956;-67
2022/08/13 06:48:22;;;;;;;36.50;32.80;;;;;;;26.61;64.45;100020.11;117045;1185;21872;-59
2022/08/13 06:51:01;;;;;;;36.80;33.10;;;;;;;26.70;64.37;100019.89;116963;1186;21887;-60
2022/08/13 06:53:29;;;;;;;38.70;34.40;;;;;;;26.78;64.35;100021.91;117075;1187;22651;-59
2022/08/13 06:56:19;;;;;;;33.50;30.10;;;;;;;26.86;64.32;100020.55;117056;1181;21902;-67
2022/08/13 06:59:03;;;;;;;34.20;30.80;;;;;;;26.92;63.99;100023.44;117046;1186;23453;-67
2022/08/13 07:01:42;;;;;;;35.80;32.20;;;;;;;27.01;64.02;100021.08;117073;1187;21991;-67
2022/08/13 07:04:29;;;;;;;38.50;34.60;;;;;;;27.14;64.35;100021.86;117034;1184;22192;-67
2022/08/13 07:06:57;;;;;;;44.80;36.80;;;;;;;27.34;64.63;100020.52;117138;1187;22160;-66
2022/08/13 07:09:24;;;;;;;38.70;34.40;;;;;;;27.55;64.85;100019.73;117217;1186;23452;-66
2022/08/13 07:12:07;;;;;;;37.40;33.40;;;;;;;27.80;64.70;100020.62;116979;1187;23515;-67
2022/08/13 07:14:35;;;;;;;35.50;31.80;;;;;;;28.00;64.49;100021.70;117276;1187;21858;-67
2022/08/13 07:17:02;;;;;;;37.80;34.00;;;;;;;28.18;64.07;100019.40;117097;1187;22623;-60
2022/08/13 07:19:30;;;;;;;37.60;33.90;;;;;;;28.31;63.79;100015.84;116963;1185;23455;-66
2022/08/13 07:22:17;;;;;;;36.80;33.10;;;;;;;28.44;63.69;100012.98;117089;1185;22630;-60
2022/08/13 07:25:04;;;;;;;43.10;35.70;;;;;;;28.58;63.68;100010.77;117077;1182;22929;-66
2022/08/13 07:27:38;;;;;;;37.20;33.50;;;;;;;28.72;63.50;100011.28;117514;1186;23564;-67
2022/08/13 07:30:14;;;;;;;37.20;33.20;;;;;;;28.83;63.20;100008.06;117045;1187;23558;-60
2022/08/13 07:32:41;;;;;;;36.60;32.70;;;;;;;28.95;63.29;100003.84;117156;1188;21890;-67
2022/08/13 07:35:11;;;;;;;33.60;30.30;;;;;;;29.10;63.07;100005.77;117145;1187;22194;-67
2022/08/13 07:37:45;;;;;;;33.40;30.30;;;;;;;29.23;62.80;100007.18;117078;1187;23018;-67
2022/08/13 07:40:19;;;;;;;32.40;29.20;;;;;;;29.35;62.71;100004.73;117116;1187;21858;-67
2022/08/13 07:42:49;;;;;;;33.20;29.80;;;;;;;29.49;62.71;100000.36;117592;1186;22326;-67
2022/08/13 07:45:23;;;;;;;33.50;30.40;;;;;;;29.70;63.00;99994.86;117102;1187;22154;-60
2022/08/13 07:48:10;;;;;;;34.30;31.00;;;;;;;30.01;62.92;99993.80;117003;1183;21856;-67
2022/08/13 07:50:59;;;;;;;32.10;29.10;;;;;;;30.37;62.55;99990.89;117234;1185;22912;-67
2022/08/13 07:53:35;;;;;;;32.60;29.50;;;;;;;30.74;62.53;99990.56;117031;1187;21866;-67
2022/08/13 07:56:28;;;;;;;31.40;28.00;;;;;;;31.15;62.26;99988.19;117069;1187;21905;-60
2022/08/13 07:59:11;;;;;;;29.90;27.10;;;;;;;31.49;61.80;99987.63;117073;1187;22648;-60
2022/08/13 08:01:57;;;;;;;28.30;25.70;;;;;;;31.81;61.38;99988.95;117086;1184;21846;-60
2022/08/13 08:04:44;;;;;;;27.50;24.80;;;;;;;32.16;60.90;99985.52;117095;1187;21949;-67
2022/08/13 08:07:16;;;;;;;27.30;24.60;;;;;;;32.50;60.30;99983.92;117070;1187;21858;-67
2022/08/13 08:09:43;;;;;;;24.60;22.30;;;;;;;32.75;59.97;99981.34;117152;1184;22924;-60
2022/08/13 08:14:57;;;;;;;25.20;22.60;;;;;;;33.20;59.45;99978.11;117345;1185;23009;-67
2022/08/13 08:17:26;;;;;;;25.80;23.40;;;;;;;33.46;59.34;99977.20;117409;1186;23557;-67
2022/08/13 08:20:23;;;;;;;24.20;22.00;;;;;;;33.74;58.95;99976.36;117320;1186;23544;-67
2022/08/13 08:23:04;;;;;;;;;;;;;;;34.01;58.41;99976.80;117335;1185;22947;-60
2022/08/13 08:25:32;;;;;;;22.20;19.90;;;;;;;34.17;58.50;99975.36;117438;1183;22618;-60
2022/08/13 08:28:11;;;;;;;22.20;20.00;;;;;;;34.30;57.45;99976.88;117338;1189;21862;-67
2022/08/13 08:30:59;;;;;;;23.00;20.60;;;;;;;34.27;56.86;99978.30;117352;1185;22933;-67
2022/08/13 08:33:29;;;;;;;22.00;19.90;;;;;;;34.21;55.76;99974.80;117367;1185;22919;-61
2022/08/13 08:36:17;;;;;;;21.70;19.60;;;;;;;34.19;56.71;99974.86;117489;1183;22932;-60
2022/08/13 08:44:42;;;;;;;23.90;21.30;;;;;;;34.20;54.56;99970.63;117184;1188;21854;-68
2022/08/13 08:47:10;;;;;;;21.70;19.70;;;;;;;34.00;55.92;99972.80;117405;1185;21868;-67
2022/08/13 08:49:40;;;;;;;22.00;19.90;;;;;;;33.91;56.07;99965.59;117387;1181;23274;-60
2022/08/13 08:52:09;;;;;;;20.00;17.90;;;;;;;33.91;55.86;99965.10;117332;1185;21845;-60
2022/08/13 08:54:37;;;;;;;20.40;18.50;;;;;;;33.97;56.07;99965.99;117290;1184;22616;-67
2022/08/13 08:57:06;;;;;;;;;;;;;;;34.08;56.03;99966.35;117229;1189;22803;-61
2022/08/13 08:59:41;;;;;;;19.40;17.50;;;;;;;34.15;55.74;99963.60;117296;1183;21843;-60
2022/08/13 09:02:24;;;;;;;19.40;17.60;;;;;;;34.20;55.77;99958.41;117309;1186;21855;-60
2022/08/13 09:04:54;;;;;;;19.80;17.90;;;;;;;34.32;55.91;99954.06;117321;1186;21851;-60
2022/08/13 09:07:36;;;;;;;18.00;16.40;;;;;;;34.49;55.71;99952.75;117294;1183;21850;-67
2022/08/13 09:10:04;;;;;;;19.80;17.90;;;;;;;34.55;54.87;99954.75;117255;1182;21855;-67
2022/08/13 09:12:33;;;;;;;20.00;18.00;;;;;;;34.53;54.72;99954.30;117233;1185;21954;-68
2022/08/13 09:15:00;;;;;;;18.90;17.10;;;;;;;34.46;54.77;99955.98;117201;1186;21856;-60
2022/08/13 09:17:27;;;;;;;20.00;18.20;;;;;;;34.37;53.82;99954.14;117320;1185;21848;-67
2022/08/13 09:20:12;;;;;;;20.30;18.00;;;;;;;34.30;54.02;99947.18;117313;1188;22946;-60
2022/08/13 09:22:44;;;;;;;18.80;17.00;;;;;;;34.37;54.70;99945.06;117068;1188;21918;-60
2022/08/13 09:25:22;;;;;;;18.90;16.70;;;;;;;34.56;55.00;99942.14;117385;1186;21955;-67
2022/08/13 09:27:51;;;;;;;20.80;17.40;;;;;;;34.81;54.91;99940.78;117313;1186;23475;-67
2022/08/13 09:30:30;;;;;;;16.50;15.00;;;;;;;35.14;54.89;99944.15;117140;1187;21894;-67
2022/08/13 09:32:59;;;;;;;16.50;14.80;;;;;;;35.52;52.98;99942.39;117380;1185;21875;-61
2022/08/13 09:35:28;;;;;;;17.30;15.60;;;;;;;35.94;53.32;99945.70;117337;1185;21859;-61
2022/08/13 09:38:04;;;;;;;16.80;14.90;;;;;;;36.43;53.63;99945.02;117068;1186;21887;-62
2022/08/13 09:40:32;;;;;;;16.50;14.50;;;;;;;36.91;53.34;99940.87;117069;1188;21889;-62
2022/08/13 09:43:22;;;;;;;16.20;14.70;;;;;;;37.41;51.11;99942.33;117088;1186;23460;-66
2022/08/13 09:46:10;;;;;;;15.80;14.00;;;;;;;37.67;48.35;99939.84;117256;1186;21842;-66
2022/08/13 09:48:44;;;;;;;14.50;13.20;;;;;;;37.69;48.27;99939.24;117135;1188;23475;-67
2022/08/13 09:51:13;;;;;;;16.40;14.70;;;;;;;37.61;45.30;99941.25;117194;1186;22030;-66
2022/08/13 09:54:08;;;;;;;15.70;14.10;;;;;;;37.53;47.04;99939.84;117238;1187;21875;-60
2022/08/13 09:56:38;;;;;;;14.30;12.90;;;;;;;37.50;45.41;99939.09;117128;1184;23452;-59
2022/08/13 09:59:10;;;;;;;15.20;13.80;;;;;;;37.39;45.91;99940.67;117347;1182;23449;-60
2022/08/13 10:01:57;;;;;;;13.80;12.50;;;;;;;37.32;47.39;99943.89;117130;1187;22157;-60
2022/08/13 10:04:26;;;;;;;15.40;14.00;;;;;;;37.26;45.04;99943.70;117258;1186;21919;-70
2022/08/13 10:06:58;;;;;;;15.10;13.50;;;;;;;37.12;44.31;99945.67;117331;1186;21990;-69
2022/08/13 10:09:30;;;;;;;16.00;14.40;;;;;;;36.88;43.73;99953.30;117265;1185;21849;-67
2022/08/13 10:12:06;;;;;;;14.70;13.40;;;;;;;36.77;46.16;99949.81;117208;1182;21858;-61
2022/08/13 10:14:47;;;;;;;13.20;12.00;;;;;;;36.85;47.37;99947.76;117219;1180;21876;-69
2022/08/13 10:17:26;;;;;;;14.20;13.00;;;;;;;37.09;46.32;99943.80;119373;1185;21778;-70
2022/08/13 10:20:16;;;;;;;14.40;13.00;;;;;;;37.30;46.15;99945.78;119162;1187;21815;-62
2022/08/13 10:22:43;;;;;;;13.60;12.10;;;;;;;37.58;46.90;99945.00;119280;1186;21852;-69
2022/08/13 10:25:11;;;;;;;14.80;13.30;;;;;;;37.92;45.13;99942.08;119096;1186;23599;-70
2022/08/13 10:27:39;;;;;;;13.90;12.00;;;;;;;38.20;46.52;99947.71;119318;1185;21830;-62
2022/08/13 10:30:19;;;;;;;13.30;11.90;;;;;;;38.52;46.99;99944.89;118772;1186;21863;-69
2022/08/13 10:33:08;;;;;;;13.00;11.60;;;;;;;38.89;46.72;99947.34;117303;1189;21893;-69
2022/08/13 10:35:37;;;;;;;15.20;11.80;;;;;;;39.04;46.01;99954.98;117299;1185;22865;-70
2022/08/13 10:38:16;;;;;;;12.90;11.60;;;;;;;39.06;45.84;99958.40;117641;1185;21859;-69
2022/08/13 10:40:45;;;;;;;12.80;11.50;;;;;;;39.01;45.81;99958.15;117038;1186;21963;-60
2022/08/13 10:43:14;;;;;;;13.10;11.90;;;;;;;38.95;45.71;99963.20;117133;1185;21869;-68
2022/08/13 10:45:49;;;;;;;13.40;12.10;;;;;;;38.70;43.09;99957.83;117139;1188;22327;-60
2022/08/13 10:48:17;;;;;;;13.10;11.80;;;;;;;38.51;45.31;99956.10;117181;1187;22946;-68
2022/08/13 10:50:45;;;;;;;14.10;12.50;;;;;;;38.36;43.99;99953.92;117241;1188;21888;-68
2022/08/13 10:56:09;;;;;;;13.50;12.20;;;;;;;38.25;45.42;99950.92;117305;1186;21917;-69
2022/08/13 10:58:42;;;;;;;14.50;12.00;;;;;;;38.33;45.36;99949.23;117328;1180;22925;-60
2022/08/13 11:01:23;;;;;;;12.80;11.70;;;;;;;38.32;44.72;99948.73;117249;1186;21860;-60
2022/08/13 11:03:52;;;;;;;13.40;12.20;;;;;;;38.26;45.05;99950.46;117186;1183;22920;-69
2022/08/13 11:06:36;;;;;;;14.20;12.60;;;;;;;38.19;43.42;99950.94;117611;1186;23457;-61
2022/08/13 11:09:06;;;;;;;13.40;11.60;;;;;;;37.99;43.15;99948.15;117134;1186;23554;-64
2022/08/13 11:11:55;;;;;;;13.80;12.50;;;;;;;37.83;43.47;99946.45;117120;1187;21860;-70
2022/08/13 11:14:26;;;;;;;12.70;11.40;;;;;;;37.82;44.30;99943.49;117364;1184;21856;-61
2022/08/13 11:17:04;;;;;;;12.10;11.00;;;;;;;37.98;44.52;99943.62;117310;1186;21847;-61
2022/08/13 11:19:51;;;;;;;12.70;11.50;;;;;;;38.24;44.10;99945.22;117223;1186;22999;-61
2022/08/13 11:22:23;;;;;;;13.20;11.80;;;;;;;38.38;41.23;99937.84;117368;1186;21932;-70
2022/08/13 11:24:55;;;;;;;13.20;12.00;;;;;;;38.26;41.98;99933.64;117273;1186;22539;-61
2022/08/13 11:27:22;;;;;;;12.50;11.30;;;;;;;38.13;43.05;99939.45;117327;1186;23699;-61
2022/08/13 11:30:10;;;;;;;11.70;10.50;;;;;;;38.30;43.03;99937.23;117235;1183;21853;-69
2022/08/13 11:32:37;;;;;;;12.40;11.10;;;;;;;38.49;41.21;99936.86;117383;1183;23181;-69
2022/08/13 11:35:06;;;;;;;12.60;11.30;;;;;;;38.39;40.75;99930.60;117348;1186;21939;-61
2022/08/13 11:37:36;;;;;;;13.20;10.80;;;;;;;38.20;40.68;99932.20;117302;1185;23579;-62
2022/08/13 11:40:07;;;;;;;11.90;10.80;;;;;;;38.09;40.79;99927.18;117359;1185;22687;-62
2022/08/13 11:42:54;;;;;;;13.10;11.10;;;;;;;38.18;41.87;99925.11;117102;1183;21923;-62
2022/08/13 11:45:38;;;;;;;13.30;10.40;;;;;;;38.42;41.49;99922.86;117145;1185;22022;-70
2022/08/13 11:48:13;;;;;;;13.70;11.50;;;;;;;38.60;41.31;99920.46;117170;1185;23555;-70
2022/08/13 11:50:46;;;;;;;11.60;10.50;;;;;;;38.70;40.56;99917.48;117541;1186;21846;-62
2022/08/13 11:53:13;;;;;;;12.20;11.00;;;;;;;38.78;41.10;99912.16;117277;1182;21859;-71
2022/08/13 11:55:46;;;;;;;12.50;11.30;;;;;;;38.93;41.84;99902.80;117140;1183;21910;-62
2022/08/13 11:58:27;;;;;;;13.30;12.00;;;;;;;39.09;40.53;99898.65;117233;1184;21858;-62
2022/08/13 12:01:18;;;;;;;12.80;11.50;;;;;;;39.09;40.68;99892.81;117271;1184;21967;-62
2022/08/13 12:03:53;;;;;;;13.70;11.20;;;;;;;39.13;41.36;99890.77;117151;1186;23449;-62
2022/08/13 12:06:41;;;;;;;13.60;11.10;;;;;;;39.34;41.51;99890.59;117326;1180;23016;-62
2022/08/13 12:09:16;;;;;;;11.90;10.60;;;;;;;39.60;41.32;99888.00;117233;1185;21853;-62
2022/08/13 12:12:03;;;;;;;12.80;11.50;;;;;;;39.79;40.56;99887.20;117303;1186;23518;-62
2022/08/13 12:14:38;;;;;;;11.20;10.20;;;;;;;39.90;40.78;99890.48;117091;1186;21859;-62
2022/08/13 12:17:05;;;;;;;12.40;11.30;;;;;;;39.97;39.85;99888.84;117337;1183;21863;-70